createdAt,value
2019-02-23T00:00:12.527Z,16.20
2019-02-23T00:01:15.984Z,16.27
2019-02-23T00:02:19.661Z,16.26
2019-02-23T00:03:21.305Z,16.30
2019-02-23T00:04:23.302Z,16.27
2019-02-23T00:05:25.337Z,16.29
2019-02-23T00:06:30.101Z,16.21
2019-02-23T00:07:31.348Z,16.42
2019-02-23T00:08:33.253Z,16.45
2019-02-23T00:09:35.315Z,16.37
2019-02-23T00:10:37.399Z,16.40
2019-02-23T00:11:39.398Z,16.48
2019-02-23T00:12:42.411Z,16.50
2019-02-23T00:13:44.647Z,16.50
2019-02-23T00:14:46.935Z,16.51
2019-02-23T00:15:48.667Z,16.54
2019-02-23T00:16:50.977Z,16.52
2019-02-23T00:17:53.130Z,16.54
2019-02-23T00:18:54.793Z,16.54
2019-02-23T00:19:57.000Z,16.50
2019-02-23T00:21:01.114Z,16.50
2019-02-23T00:22:03.876Z,16.42
2019-02-23T00:23:05.789Z,16.43
2019-02-23T00:24:07.752Z,16.44
2019-02-23T00:25:09.643Z,16.46
2019-02-23T00:26:11.609Z,16.43
2019-02-23T00:27:13.560Z,16.42
2019-02-23T00:28:15.306Z,16.41
2019-02-23T00:29:17.360Z,16.40
2019-02-23T00:30:19.390Z,16.45
2019-02-23T00:31:23.494Z,16.39
2019-02-23T00:32:25.470Z,16.34
2019-02-23T00:33:27.833Z,16.36
2019-02-23T00:34:29.518Z,16.40
2019-02-23T00:35:31.322Z,16.44
2019-02-23T00:36:33.322Z,16.40
2019-02-23T00:37:35.524Z,16.47
2019-02-23T00:38:37.742Z,16.58
2019-02-23T00:39:39.640Z,16.58
2019-02-23T00:40:41.902Z,16.60
2019-02-23T00:41:43.924Z,16.64
2019-02-23T00:42:45.817Z,16.67
2019-02-23T00:43:47.950Z,16.63
2019-02-23T00:44:50.071Z,16.66
2019-02-23T00:45:52.243Z,16.66
2019-02-23T00:46:54.120Z,16.66
2019-02-23T00:47:57.254Z,16.63
2019-02-23T00:48:59.340Z,16.50
2019-02-23T00:50:02.675Z,16.54
2019-02-23T00:51:04.741Z,16.57
2019-02-23T00:52:06.852Z,16.64
2019-02-23T00:53:08.902Z,16.64
2019-02-23T00:54:10.851Z,16.61
2019-02-23T00:55:13.056Z,16.53
2019-02-23T00:56:14.963Z,16.54
2019-02-23T00:57:16.983Z,16.55
2019-02-23T00:58:18.964Z,16.70
2019-02-23T00:59:20.988Z,16.74
2019-02-23T01:00:22.849Z,16.77
2019-02-23T01:01:24.515Z,16.69
2019-02-23T01:02:26.581Z,16.63
2019-02-23T01:03:28.601Z,16.80
2019-02-23T01:04:30.470Z,16.79
2019-02-23T01:05:33.583Z,16.78
2019-02-23T01:06:35.553Z,16.74
2019-02-23T01:07:37.892Z,16.67
2019-02-23T01:08:40.281Z,16.79
2019-02-23T01:09:42.163Z,16.82
2019-02-23T01:10:44.337Z,16.75
2019-02-23T01:11:46.602Z,16.82
2019-02-23T01:12:48.426Z,16.88
2019-02-23T01:13:50.456Z,16.75
2019-02-23T01:14:52.481Z,16.73
2019-02-23T01:15:54.158Z,16.81
2019-02-23T01:16:56.556Z,16.87
2019-02-23T01:17:58.524Z,16.95
2019-02-23T01:19:00.338Z,17.05
2019-02-23T01:20:07.272Z,17.14
2019-02-23T01:21:09.962Z,17.24
2019-02-23T01:22:12.002Z,17.36
2019-02-23T01:23:14.040Z,17.43
2019-02-23T01:24:16.383Z,17.48
2019-02-23T01:25:18.348Z,17.56
2019-02-23T01:26:20.855Z,17.60
2019-02-23T01:27:22.949Z,17.71
2019-02-23T01:28:26.248Z,17.75
2019-02-23T01:29:28.254Z,17.81
2019-02-23T01:30:30.062Z,17.86
2019-02-23T01:31:31.916Z,17.90
2019-02-23T01:32:33.891Z,17.92
2019-02-23T01:33:35.733Z,17.96
2019-02-23T01:34:37.741Z,17.99
2019-02-23T01:35:39.842Z,17.98
2019-02-23T01:36:41.947Z,18.00
2019-02-23T01:37:44.065Z,18.05
2019-02-23T01:38:46.755Z,18.06
2019-02-23T01:39:48.840Z,18.08
2019-02-23T01:40:51.329Z,18.11
2019-02-23T01:41:53.117Z,18.07
2019-02-23T01:42:56.052Z,18.10
2019-02-23T01:44:00.575Z,18.08
2019-02-23T01:45:04.960Z,18.12
2019-02-23T01:46:06.745Z,18.04
2019-02-23T01:47:09.160Z,18.00
2019-02-23T01:48:11.357Z,17.98
2019-02-23T01:49:13.163Z,17.99
2019-02-23T01:50:16.350Z,17.90
2019-02-23T01:51:18.327Z,17.89
2019-02-23T01:52:20.391Z,17.88
2019-02-23T01:53:22.355Z,17.91
2019-02-23T01:54:24.309Z,17.88
2019-02-23T01:55:26.515Z,17.88
2019-02-23T01:56:30.322Z,17.91
2019-02-23T01:57:32.405Z,17.90
2019-02-23T01:58:34.661Z,17.86
2019-02-23T01:59:36.532Z,17.82
2019-02-23T02:00:38.933Z,17.89
2019-02-23T02:01:41.439Z,17.85
2019-02-23T02:02:44.674Z,17.81
2019-02-23T02:03:46.583Z,17.88
2019-02-23T02:04:48.777Z,17.90
2019-02-23T02:05:51.323Z,17.84
2019-02-23T02:06:53.180Z,17.77
2019-02-23T02:07:55.339Z,17.68
2019-02-23T02:08:57.237Z,17.67
2019-02-23T02:09:59.481Z,17.71
2019-02-23T02:11:01.613Z,17.72
2019-02-23T02:12:05.482Z,17.76
2019-02-23T02:13:07.698Z,17.80
2019-02-23T02:14:10.223Z,17.84
2019-02-23T02:15:14.086Z,17.92
2019-02-23T02:16:16.114Z,17.96
2019-02-23T02:17:18.331Z,18.00
2019-02-23T02:18:20.434Z,18.04
2019-02-23T02:19:22.303Z,18.09
2019-02-23T02:20:24.303Z,18.15
2019-02-23T02:21:26.526Z,18.19
2019-02-23T02:22:28.586Z,18.21
2019-02-23T02:23:30.786Z,18.23
2019-02-23T02:24:33.088Z,18.27
2019-02-23T02:25:34.758Z,18.27
2019-02-23T02:26:36.945Z,18.27
2019-02-23T02:27:38.797Z,18.31
2019-02-23T02:28:40.670Z,18.33
2019-02-23T02:29:42.709Z,18.37
2019-02-23T02:30:44.354Z,18.38
2019-02-23T02:31:46.407Z,18.38
2019-02-23T02:32:48.758Z,18.38
2019-02-23T02:34:06.614Z,18.40
2019-02-23T02:35:09.715Z,18.37
2019-02-23T02:36:11.502Z,18.41
2019-02-23T02:37:13.722Z,18.44
2019-02-23T02:38:15.947Z,18.44
2019-02-23T02:39:17.899Z,18.45
2019-02-23T02:40:20.005Z,18.53
2019-02-23T02:41:21.935Z,18.60
2019-02-23T02:42:23.734Z,18.61
2019-02-23T02:43:25.535Z,18.65
2019-02-23T02:44:27.628Z,18.67
2019-02-23T02:45:29.538Z,18.71
2019-02-23T02:46:31.627Z,18.71
2019-02-23T02:47:33.464Z,18.75
2019-02-23T02:48:35.523Z,18.79
2019-02-23T02:49:37.409Z,18.78
2019-02-23T02:50:39.365Z,18.79
2019-02-23T02:51:41.342Z,18.80
2019-02-23T02:52:43.207Z,18.82
2019-02-23T02:53:45.085Z,18.86
2019-02-23T02:54:47.164Z,18.89
2019-02-23T02:55:49.053Z,18.92
2019-02-23T02:56:51.142Z,18.89
2019-02-23T02:57:53.634Z,18.96
2019-02-23T02:58:55.668Z,18.98
2019-02-23T02:59:57.702Z,18.98
2019-02-23T03:00:59.860Z,19.06
2019-02-23T03:02:02.034Z,19.06
2019-02-23T03:03:04.220Z,19.06
2019-02-23T03:04:06.088Z,19.08
2019-02-23T03:05:08.984Z,19.12
2019-02-23T03:06:12.060Z,19.12
2019-02-23T03:07:13.714Z,19.15
2019-02-23T03:08:15.698Z,19.15
2019-02-23T03:09:17.473Z,19.20
2019-02-23T03:10:19.152Z,19.20
2019-02-23T03:11:21.278Z,19.19
2019-02-23T03:12:23.334Z,19.24
2019-02-23T03:13:25.373Z,19.24
2019-02-23T03:14:27.470Z,19.27
2019-02-23T03:15:29.466Z,19.24
2019-02-23T03:16:31.551Z,19.24
2019-02-23T03:17:33.633Z,19.25
2019-02-23T03:18:35.580Z,19.26
2019-02-23T03:19:37.755Z,19.24
2019-02-23T03:20:39.916Z,19.26
2019-02-23T03:21:41.976Z,19.25
2019-02-23T03:22:43.969Z,19.24
2019-02-23T03:23:46.285Z,19.27
2019-02-23T03:24:48.362Z,19.28
2019-02-23T03:25:50.815Z,19.28
2019-02-23T03:26:52.787Z,19.28
2019-02-23T03:27:54.603Z,19.29
2019-02-23T03:28:56.507Z,19.27
2019-02-23T03:29:58.447Z,19.30
2019-02-23T03:31:00.215Z,19.32
2019-02-23T03:32:02.242Z,19.31
2019-02-23T03:33:04.007Z,19.33
2019-02-23T03:34:06.023Z,19.34
2019-02-23T03:35:08.391Z,19.30
2019-02-23T03:36:11.323Z,19.23
2019-02-23T03:37:13.389Z,19.21
2019-02-23T03:38:15.255Z,19.24
2019-02-23T03:39:17.401Z,19.26
2019-02-23T03:40:19.065Z,19.29
2019-02-23T03:41:21.540Z,19.30
2019-02-23T03:42:23.553Z,19.28
2019-02-23T03:43:25.592Z,19.30
2019-02-23T03:44:27.477Z,19.32
2019-02-23T03:45:29.460Z,19.33
2019-02-23T03:46:31.506Z,19.36
2019-02-23T03:47:33.464Z,19.33
2019-02-23T03:48:35.536Z,19.35
2019-02-23T03:49:37.900Z,19.36
2019-02-23T03:50:48.759Z,19.39
2019-02-23T03:51:43.843Z,19.38
2019-02-23T03:52:45.900Z,19.43
2019-02-23T03:53:47.936Z,19.43
2019-02-23T03:54:50.044Z,19.46
2019-02-23T03:55:52.108Z,19.48
2019-02-23T03:56:54.205Z,19.46
2019-02-23T03:57:57.064Z,19.48
2019-02-23T03:58:59.007Z,19.46
2019-02-23T04:00:01.186Z,19.44
2019-02-23T04:01:03.068Z,19.45
2019-02-23T04:02:05.319Z,19.46
2019-02-23T04:03:07.243Z,19.42
2019-02-23T04:04:11.252Z,19.42
2019-02-23T04:05:13.195Z,19.36
2019-02-23T04:06:15.340Z,19.31
2019-02-23T04:07:17.275Z,19.20
2019-02-23T04:08:19.329Z,19.16
2019-02-23T04:09:21.170Z,19.12
2019-02-23T04:10:23.078Z,18.99
2019-02-23T04:11:25.352Z,18.90
2019-02-23T04:12:27.226Z,18.81
2019-02-23T04:13:30.175Z,18.85
2019-02-23T04:14:32.301Z,18.74
2019-02-23T04:15:34.011Z,18.59
2019-02-23T04:16:35.671Z,18.53
2019-02-23T04:17:38.043Z,18.59
2019-02-23T04:18:40.197Z,18.59
2019-02-23T04:19:42.083Z,18.45
2019-02-23T04:20:43.953Z,18.45
2019-02-23T04:21:45.911Z,18.61
2019-02-23T04:22:47.953Z,18.63
2019-02-23T04:23:49.872Z,18.48
2019-02-23T04:24:51.671Z,18.38
2019-02-23T04:25:53.522Z,18.30
2019-02-23T04:26:55.475Z,18.28
2019-02-23T04:27:57.549Z,18.29
2019-02-23T04:28:59.670Z,18.39
2019-02-23T04:30:01.451Z,18.32
2019-02-23T04:31:03.794Z,18.44
2019-02-23T04:32:06.774Z,18.26
2019-02-23T04:33:08.754Z,18.38
2019-02-23T04:34:10.484Z,18.35
2019-02-23T04:35:12.588Z,18.32
2019-02-23T04:36:14.220Z,18.28
2019-02-23T04:37:16.178Z,18.33
2019-02-23T04:38:17.996Z,18.18
2019-02-23T04:39:19.900Z,18.30
2019-02-23T04:40:21.864Z,18.09
2019-02-23T04:41:23.877Z,18.12
2019-02-23T04:42:25.594Z,18.03
2019-02-23T04:43:27.427Z,18.15
2019-02-23T04:44:29.304Z,18.22
2019-02-23T04:45:31.349Z,18.16
2019-02-23T04:46:33.241Z,18.01
2019-02-23T04:47:35.160Z,17.95
2019-02-23T04:48:37.127Z,18.04
2019-02-23T04:49:38.996Z,18.08
2019-02-23T04:50:41.214Z,18.05
2019-02-23T04:51:42.996Z,17.98
2019-02-23T04:52:44.933Z,18.01
2019-02-23T04:53:46.802Z,18.08
2019-02-23T04:54:48.739Z,18.09
2019-02-23T04:55:50.872Z,17.90
2019-02-23T04:56:52.632Z,18.01
2019-02-23T04:57:56.002Z,17.95
2019-02-23T04:58:57.936Z,17.93
2019-02-23T05:00:01.587Z,17.91
2019-02-23T05:01:03.565Z,17.97
2019-02-23T05:02:05.651Z,17.94
2019-02-23T05:03:07.301Z,17.92
2019-02-23T05:04:09.126Z,17.93
2019-02-23T05:05:11.251Z,17.91
2019-02-23T05:06:13.188Z,18.00
2019-02-23T05:07:15.381Z,18.02
2019-02-23T05:08:17.403Z,17.93
2019-02-23T05:09:19.353Z,17.97
2019-02-23T05:10:21.218Z,18.01
2019-02-23T05:11:23.011Z,17.95
2019-02-23T05:12:25.091Z,17.99
2019-02-23T05:13:27.043Z,17.97
2019-02-23T05:14:28.965Z,17.88
2019-02-23T05:15:31.365Z,17.87
2019-02-23T05:16:33.099Z,17.86
2019-02-23T05:17:35.054Z,17.96
2019-02-23T05:18:37.633Z,17.97
2019-02-23T05:19:39.683Z,18.08
2019-02-23T05:20:41.539Z,18.00
2019-02-23T05:21:43.716Z,18.00
2019-02-23T05:22:45.502Z,18.10
2019-02-23T05:23:47.375Z,18.02
2019-02-23T05:24:49.565Z,17.96
2019-02-23T05:25:51.399Z,17.97
2019-02-23T05:26:53.399Z,17.95
2019-02-23T05:27:55.268Z,18.01
2019-02-23T05:28:57.327Z,18.01
2019-02-23T05:29:59.238Z,17.99
2019-02-23T05:31:02.554Z,18.08
2019-02-23T05:32:04.758Z,17.98
2019-02-23T05:33:06.548Z,17.97
2019-02-23T05:34:08.433Z,17.98
2019-02-23T05:35:12.233Z,18.05
2019-02-23T05:36:14.025Z,18.10
2019-02-23T05:37:16.000Z,18.19
2019-02-23T05:38:17.884Z,18.27
2019-02-23T05:39:20.130Z,18.32
2019-02-23T05:40:22.228Z,18.44
2019-02-23T05:41:24.121Z,18.49
2019-02-23T05:42:26.130Z,18.54
2019-02-23T05:43:27.895Z,18.58
2019-02-23T05:44:29.974Z,18.63
2019-02-23T05:45:31.747Z,18.70
2019-02-23T05:46:33.714Z,18.74
2019-02-23T05:47:35.677Z,18.76
2019-02-23T05:48:37.688Z,18.81
2019-02-23T05:49:39.748Z,18.85
2019-02-23T05:50:41.799Z,18.88
2019-02-23T05:51:43.484Z,18.95
2019-02-23T05:52:45.445Z,18.85
2019-02-23T05:53:47.340Z,18.81
2019-02-23T05:54:49.487Z,18.79
2019-02-23T05:55:51.603Z,18.81
2019-02-23T05:56:53.493Z,18.83
2019-02-23T05:57:55.325Z,18.84
2019-02-23T05:58:57.229Z,18.85
2019-02-23T05:59:59.235Z,18.85
2019-02-23T06:01:01.147Z,18.89
2019-02-23T06:02:03.275Z,18.91
2019-02-23T06:03:05.441Z,18.92
2019-02-23T06:04:07.492Z,18.99
2019-02-23T06:05:09.737Z,19.04
2019-02-23T06:06:11.680Z,19.07
2019-02-23T06:07:13.647Z,19.09
2019-02-23T06:08:15.437Z,19.12
2019-02-23T06:09:17.421Z,19.13
2019-02-23T06:10:19.669Z,19.09
2019-02-23T06:11:21.439Z,19.08
2019-02-23T06:12:23.556Z,19.10
2019-02-23T06:13:25.408Z,19.11
2019-02-23T06:14:27.521Z,19.14
2019-02-23T06:15:29.469Z,19.18
2019-02-23T06:16:31.316Z,19.22
2019-02-23T06:17:33.312Z,19.23
2019-02-23T06:18:35.170Z,19.28
2019-02-23T06:19:37.199Z,19.31
2019-02-23T06:20:39.988Z,19.31
2019-02-23T06:21:52.785Z,19.35
2019-02-23T06:22:46.882Z,19.35
2019-02-23T06:23:49.155Z,19.37
2019-02-23T06:24:51.076Z,19.42
2019-02-23T06:25:52.914Z,19.40
2019-02-23T06:26:54.780Z,19.43
2019-02-23T06:27:56.732Z,19.44
2019-02-23T06:28:58.844Z,19.43
2019-02-23T06:30:00.945Z,19.48
2019-02-23T06:31:02.970Z,19.47
2019-02-23T06:32:05.058Z,19.46
2019-02-23T06:33:06.822Z,19.48
2019-02-23T06:34:16.086Z,19.52
2019-02-23T06:35:12.981Z,19.51
2019-02-23T06:36:14.987Z,19.52
2019-02-23T06:37:16.724Z,19.54
2019-02-23T06:38:18.609Z,19.53
2019-02-23T06:39:20.426Z,19.56
2019-02-23T06:40:22.208Z,19.55
2019-02-23T06:41:24.121Z,19.60
2019-02-23T06:42:26.007Z,19.61
2019-02-23T06:43:27.959Z,19.62
2019-02-23T06:44:29.946Z,19.62
2019-02-23T06:45:31.849Z,19.62
2019-02-23T06:46:33.994Z,19.64
2019-02-23T06:47:36.075Z,19.66
2019-02-23T06:48:37.973Z,19.67
2019-02-23T06:49:39.995Z,19.67
2019-02-23T06:50:41.903Z,19.69
2019-02-23T06:51:43.564Z,19.70
2019-02-23T06:52:45.648Z,19.70
2019-02-23T06:53:47.482Z,19.72
2019-02-23T06:54:49.225Z,19.72
2019-02-23T06:55:51.529Z,19.72
2019-02-23T06:56:55.398Z,19.72
2019-02-23T06:57:57.242Z,19.70
2019-02-23T06:58:59.168Z,19.72
2019-02-23T07:00:01.579Z,19.70
2019-02-23T07:01:04.732Z,19.73
2019-02-23T07:02:06.825Z,19.70
2019-02-23T07:03:08.759Z,19.68
2019-02-23T07:04:10.628Z,19.64
2019-02-23T07:05:12.912Z,19.64
2019-02-23T07:06:16.915Z,19.66
2019-02-23T07:07:18.806Z,19.64
2019-02-23T07:08:21.150Z,19.67
2019-02-23T07:09:23.139Z,19.62
2019-02-23T07:10:25.054Z,19.57
2019-02-23T07:11:26.969Z,19.57
2019-02-23T07:12:28.768Z,19.55
2019-02-23T07:13:30.475Z,19.53
2019-02-23T07:14:32.396Z,19.52
2019-02-23T07:15:34.237Z,19.53
2019-02-23T07:16:39.228Z,19.51
2019-02-23T07:17:41.518Z,19.47
2019-02-23T07:18:43.496Z,19.55
2019-02-23T07:19:46.946Z,19.61
2019-02-23T07:20:48.994Z,19.40
2019-02-23T07:21:51.127Z,19.35
2019-02-23T07:22:53.114Z,19.27
2019-02-23T07:23:55.134Z,19.24
2019-02-23T07:24:58.562Z,19.24
2019-02-23T07:26:00.810Z,19.34
2019-02-23T07:27:02.867Z,19.25
2019-02-23T07:28:04.621Z,19.24
2019-02-23T07:29:06.475Z,19.26
2019-02-23T07:30:13.172Z,19.29
2019-02-23T07:31:15.051Z,19.32
2019-02-23T07:32:17.078Z,19.33
2019-02-23T07:33:32.069Z,19.47
2019-02-23T07:34:23.157Z,19.38
2019-02-23T07:35:25.076Z,19.25
2019-02-23T07:36:27.156Z,19.41
2019-02-23T07:37:29.519Z,19.27
2019-02-23T07:38:31.416Z,19.28
2019-02-23T07:39:33.474Z,19.14
2019-02-23T07:40:35.435Z,19.25
2019-02-23T07:41:39.291Z,19.11
2019-02-23T07:42:41.218Z,19.09
2019-02-23T07:43:43.257Z,19.11
2019-02-23T07:44:46.239Z,19.17
2019-02-23T07:45:48.228Z,19.21
2019-02-23T07:46:50.114Z,19.27
2019-02-23T07:47:52.430Z,19.31
2019-02-23T07:48:54.517Z,19.32
2019-02-23T07:49:56.395Z,19.40
2019-02-23T07:50:58.287Z,19.43
2019-02-23T07:52:00.131Z,19.46
2019-02-23T07:53:02.288Z,19.54
2019-02-23T07:54:04.310Z,19.55
2019-02-23T07:55:06.917Z,19.61
2019-02-23T07:56:09.093Z,19.65
2019-02-23T07:57:11.094Z,19.69
2019-02-23T07:58:13.116Z,19.72
2019-02-23T07:59:15.185Z,19.76
2019-02-23T08:00:17.244Z,19.78
2019-02-23T08:01:19.195Z,19.80
2019-02-23T08:02:21.239Z,19.84
2019-02-23T08:03:23.460Z,19.86
2019-02-23T08:04:25.471Z,19.86
2019-02-23T08:05:27.497Z,19.87
2019-02-23T08:06:30.055Z,19.90
2019-02-23T08:07:32.192Z,19.94
2019-02-23T08:08:34.252Z,19.99
2019-02-23T08:09:36.134Z,19.97
2019-02-23T08:10:38.232Z,20.00
2019-02-23T08:11:40.449Z,20.02
2019-02-23T08:12:43.045Z,20.03
2019-02-23T08:13:44.968Z,20.02
2019-02-23T08:14:47.298Z,20.05
2019-02-23T08:15:49.246Z,20.09
2019-02-23T08:16:51.066Z,20.11
2019-02-23T08:17:52.985Z,20.11
2019-02-23T08:18:54.876Z,20.13
2019-02-23T08:19:56.670Z,20.16
2019-02-23T08:20:58.570Z,20.18
2019-02-23T08:22:00.263Z,20.10
2019-02-23T08:23:02.186Z,20.08
2019-02-23T08:24:04.239Z,20.08
2019-02-23T08:25:09.323Z,20.06
2019-02-23T08:26:11.534Z,20.05
2019-02-23T08:27:13.345Z,20.07
2019-02-23T08:28:15.055Z,20.07
2019-02-23T08:29:17.067Z,20.07
2019-02-23T08:30:20.499Z,20.08
2019-02-23T08:31:22.601Z,20.03
2019-02-23T08:32:24.451Z,20.06
2019-02-23T08:33:26.678Z,20.08
2019-02-23T08:34:28.598Z,20.06
2019-02-23T08:35:30.366Z,20.07
2019-02-23T08:36:32.286Z,20.03
2019-02-23T08:37:34.271Z,20.03
2019-02-23T08:38:36.228Z,20.04
2019-02-23T08:39:38.015Z,20.03
2019-02-23T08:40:39.968Z,20.04
2019-02-23T08:41:43.341Z,20.05
2019-02-23T08:42:45.263Z,20.05
2019-02-23T08:43:47.120Z,20.02
2019-02-23T08:44:49.105Z,19.99
2019-02-23T08:45:51.583Z,20.01
2019-02-23T08:46:53.547Z,19.98
2019-02-23T08:47:56.424Z,19.96
2019-02-23T08:48:58.509Z,19.97
2019-02-23T08:50:00.526Z,20.11
2019-02-23T08:51:02.618Z,20.05
2019-02-23T08:52:04.767Z,19.91
2019-02-23T08:53:06.642Z,19.87
2019-02-23T08:54:08.437Z,19.80
2019-02-23T08:55:10.440Z,19.97
2019-02-23T08:56:12.388Z,20.00
2019-02-23T08:57:14.048Z,19.85
2019-02-23T08:58:15.942Z,19.88
2019-02-23T08:59:17.889Z,19.66
2019-02-23T09:00:20.846Z,19.60
2019-02-23T09:01:22.823Z,19.60
2019-02-23T09:02:24.723Z,19.63
2019-02-23T09:03:26.531Z,19.67
2019-02-23T09:04:28.448Z,19.76
2019-02-23T09:05:30.817Z,19.70
2019-02-23T09:06:33.005Z,19.73
2019-02-23T09:07:35.088Z,19.75
2019-02-23T09:08:37.269Z,19.77
2019-02-23T09:09:39.266Z,19.85
2019-02-23T09:10:41.556Z,19.86
2019-02-23T09:11:44.522Z,19.85
2019-02-23T09:12:46.256Z,19.89
2019-02-23T09:13:48.552Z,19.91
2019-02-23T09:14:50.357Z,19.96
2019-02-23T09:15:52.267Z,19.96
2019-02-23T09:16:54.450Z,19.99
2019-02-23T09:17:56.223Z,20.08
2019-02-23T09:18:58.073Z,20.01
2019-02-23T09:19:59.860Z,19.97
2019-02-23T09:21:01.830Z,19.99
2019-02-23T09:22:04.327Z,20.03
2019-02-23T09:23:06.572Z,20.05
2019-02-23T09:24:08.364Z,20.07
2019-02-23T09:25:10.677Z,20.10
2019-02-23T09:26:12.418Z,20.10
2019-02-23T09:27:14.461Z,20.09
2019-02-23T09:28:16.259Z,20.11
2019-02-23T09:29:18.278Z,20.11
2019-02-23T09:30:20.309Z,20.15
2019-02-23T09:31:22.224Z,20.17
2019-02-23T09:32:24.148Z,20.19
2019-02-23T09:33:26.055Z,20.22
2019-02-23T09:34:27.945Z,20.22
2019-02-23T09:35:30.091Z,20.26
2019-02-23T09:36:31.781Z,20.23
2019-02-23T09:37:34.205Z,20.24
2019-02-23T09:38:37.092Z,20.25
2019-02-23T09:39:38.970Z,20.28
2019-02-23T09:40:40.998Z,20.32
2019-02-23T09:41:42.925Z,20.31
2019-02-23T09:42:44.845Z,20.32
2019-02-23T09:43:46.804Z,20.35
2019-02-23T09:44:48.929Z,20.38
2019-02-23T09:45:50.627Z,20.39
2019-02-23T09:46:52.534Z,20.41
2019-02-23T09:47:54.558Z,20.43
2019-02-23T09:48:56.490Z,20.42
2019-02-23T09:49:58.615Z,20.39
2019-02-23T09:51:00.635Z,20.37
2019-02-23T09:52:02.358Z,20.35
2019-02-23T09:53:11.245Z,20.33
2019-02-23T09:54:08.614Z,20.32
2019-02-23T09:55:11.613Z,20.32
2019-02-23T09:56:13.458Z,20.30
2019-02-23T09:57:15.527Z,20.33
2019-02-23T09:58:17.469Z,20.32
2019-02-23T09:59:19.502Z,20.33
2019-02-23T10:00:21.523Z,20.36
2019-02-23T10:01:23.507Z,20.37
2019-02-23T10:02:25.504Z,20.40
2019-02-23T10:03:27.642Z,20.42
2019-02-23T10:04:29.763Z,20.45
2019-02-23T10:05:31.780Z,20.45
2019-02-23T10:06:33.568Z,20.46
2019-02-23T10:07:35.379Z,20.49
2019-02-23T10:08:37.687Z,20.51
2019-02-23T10:09:40.079Z,20.47
2019-02-23T10:10:42.430Z,20.53
2019-02-23T10:11:44.443Z,20.54
2019-02-23T10:12:46.462Z,20.55
2019-02-23T10:13:48.727Z,20.59
2019-02-23T10:14:50.546Z,20.58
2019-02-23T10:15:52.588Z,20.59
2019-02-23T10:16:54.490Z,20.62
2019-02-23T10:17:56.287Z,20.65
2019-02-23T10:18:57.981Z,20.65
2019-02-23T10:19:59.897Z,20.74
2019-02-23T10:21:01.855Z,20.68
2019-02-23T10:22:03.987Z,20.66
2019-02-23T10:23:06.093Z,20.64
2019-02-23T10:24:07.907Z,20.65
2019-02-23T10:25:09.870Z,20.68
2019-02-23T10:26:12.318Z,20.66
2019-02-23T10:27:15.648Z,20.64
2019-02-23T10:28:17.703Z,20.61
2019-02-23T10:29:20.116Z,20.57
2019-02-23T10:30:22.040Z,20.58
2019-02-23T10:31:24.013Z,20.57
2019-02-23T10:32:26.048Z,20.60
2019-02-23T10:33:27.922Z,20.56
2019-02-23T10:34:29.708Z,20.60
2019-02-23T10:35:31.813Z,20.61
2019-02-23T10:36:33.851Z,20.63
2019-02-23T10:37:35.760Z,20.63
2019-02-23T10:38:37.936Z,20.62
2019-02-23T10:39:39.695Z,20.61
2019-02-23T10:40:41.953Z,20.65
2019-02-23T10:41:43.821Z,20.65
2019-02-23T10:42:45.856Z,20.66
2019-02-23T10:43:47.770Z,20.62
2019-02-23T10:44:49.628Z,20.63
2019-02-23T10:45:51.492Z,20.64
2019-02-23T10:46:53.496Z,20.68
2019-02-23T10:47:57.328Z,20.70
2019-02-23T10:48:59.346Z,20.68
2019-02-23T10:50:01.318Z,20.74
2019-02-23T10:51:03.503Z,20.73
2019-02-23T10:52:05.568Z,20.75
2019-02-23T10:53:07.550Z,20.75
2019-02-23T10:54:09.598Z,20.77
2019-02-23T10:55:14.073Z,20.78
2019-02-23T10:56:16.031Z,20.79
2019-02-23T10:57:18.142Z,20.79
2019-02-23T10:58:20.215Z,20.79
2019-02-23T10:59:22.469Z,20.79
2019-02-23T11:00:25.190Z,20.81
2019-02-23T11:01:27.696Z,20.84
2019-02-23T11:02:29.771Z,20.85
2019-02-23T11:03:32.244Z,20.85
2019-02-23T11:04:34.409Z,20.86
2019-02-23T11:05:36.459Z,20.88
2019-02-23T11:06:38.726Z,20.88
2019-02-23T11:07:40.987Z,20.89
2019-02-23T11:08:43.137Z,20.89
2019-02-23T11:09:45.186Z,20.92
2019-02-23T11:10:47.141Z,20.94
2019-02-23T11:11:49.155Z,20.94
2019-02-23T11:12:51.486Z,20.94
2019-02-23T11:13:53.465Z,20.97
2019-02-23T11:14:56.785Z,20.97
2019-02-23T11:15:58.661Z,20.89
2019-02-23T11:17:00.800Z,20.85
2019-02-23T11:18:03.123Z,20.82
2019-02-23T11:19:05.087Z,20.84
2019-02-23T11:20:09.553Z,20.80
2019-02-23T11:21:12.051Z,20.71
2019-02-23T11:22:14.626Z,20.69
2019-02-23T11:23:17.085Z,20.66
2019-02-23T11:24:19.172Z,20.64
2019-02-23T11:25:21.149Z,20.60
2019-02-23T11:26:23.289Z,20.59
2019-02-23T11:27:26.552Z,20.59
2019-02-23T11:28:28.586Z,20.62
2019-02-23T11:29:31.777Z,20.64
2019-02-23T11:30:33.923Z,20.65
2019-02-23T11:31:35.826Z,20.67
2019-02-23T11:32:37.818Z,20.70
2019-02-23T11:33:39.518Z,20.72
2019-02-23T11:34:41.850Z,20.75
2019-02-23T11:35:43.790Z,20.76
2019-02-23T11:36:45.506Z,20.79
2019-02-23T11:37:47.399Z,20.80
2019-02-23T11:38:49.376Z,20.83
2019-02-23T11:39:51.444Z,20.85
2019-02-23T11:40:53.418Z,20.86
2019-02-23T11:41:55.333Z,20.88
2019-02-23T11:42:57.757Z,20.90
2019-02-23T11:43:59.944Z,20.91
2019-02-23T11:45:02.124Z,20.94
2019-02-23T11:46:04.162Z,20.95
2019-02-23T11:47:06.399Z,20.96
2019-02-23T11:48:08.312Z,20.97
2019-02-23T11:49:10.162Z,20.99
2019-02-23T11:50:12.823Z,21.01
2019-02-23T11:51:15.113Z,21.02
2019-02-23T11:52:16.868Z,21.03
2019-02-23T11:53:19.015Z,21.05
2019-02-23T11:54:21.070Z,21.05
2019-02-23T11:55:23.085Z,21.06
2019-02-23T11:56:25.323Z,21.08
2019-02-23T11:57:27.284Z,21.08
2019-02-23T11:58:29.027Z,21.10
2019-02-23T11:59:31.196Z,21.11
2019-02-23T12:00:34.772Z,21.11
2019-02-23T12:01:38.455Z,21.13
2019-02-23T12:02:40.391Z,21.14
2019-02-23T12:03:42.472Z,21.13
2019-02-23T12:04:44.789Z,21.16
2019-02-23T12:05:46.588Z,21.17
2019-02-23T12:06:48.352Z,21.17
2019-02-23T12:07:50.400Z,21.18
2019-02-23T12:08:52.428Z,21.19
2019-02-23T12:09:54.388Z,21.19
2019-02-23T12:10:56.619Z,21.20
2019-02-23T12:11:58.490Z,21.20
2019-02-23T12:13:00.472Z,21.22
2019-02-23T12:14:02.883Z,21.24
2019-02-23T12:15:06.851Z,21.23
2019-02-23T12:16:11.864Z,21.24
2019-02-23T12:17:14.066Z,21.25
2019-02-23T12:18:16.106Z,21.26
2019-02-23T12:19:17.915Z,21.25
2019-02-23T12:20:20.050Z,21.26
2019-02-23T12:21:22.190Z,21.27
2019-02-23T12:22:24.438Z,21.27
2019-02-23T12:23:26.362Z,21.29
2019-02-23T12:24:28.350Z,21.29
2019-02-23T12:25:30.196Z,21.28
2019-02-23T12:26:33.243Z,21.28
2019-02-23T12:27:35.901Z,21.25
2019-02-23T12:28:37.974Z,21.24
2019-02-23T12:29:40.194Z,21.25
2019-02-23T12:30:42.050Z,21.24
2019-02-23T12:31:43.976Z,21.25
2019-02-23T12:32:45.930Z,21.25
2019-02-23T12:33:47.821Z,21.24
2019-02-23T12:34:50.011Z,21.20
2019-02-23T12:35:51.845Z,21.16
2019-02-23T12:36:53.801Z,21.15
2019-02-23T12:37:55.746Z,21.15
2019-02-23T12:38:57.601Z,21.14
2019-02-23T12:39:59.612Z,21.13
2019-02-23T12:41:01.778Z,21.13
2019-02-23T12:42:03.879Z,21.13
2019-02-23T12:43:05.769Z,21.14
2019-02-23T12:44:07.649Z,21.13
2019-02-23T12:45:11.817Z,21.13
2019-02-23T12:46:13.919Z,21.14
2019-02-23T12:47:15.684Z,21.14
2019-02-23T12:48:18.788Z,21.13
2019-02-23T12:49:20.818Z,21.08
2019-02-23T12:50:22.818Z,21.07
2019-02-23T12:51:25.124Z,21.05
2019-02-23T12:52:26.981Z,21.03
2019-02-23T12:53:29.118Z,21.05
2019-02-23T12:54:30.991Z,21.04
2019-02-23T12:55:32.807Z,21.04
2019-02-23T12:56:34.827Z,21.05
2019-02-23T12:57:36.736Z,21.06
2019-02-23T12:58:38.781Z,21.04
2019-02-23T12:59:41.600Z,21.04
2019-02-23T13:00:43.523Z,21.06
2019-02-23T13:01:46.982Z,21.06
2019-02-23T13:02:48.907Z,21.12
2019-02-23T13:03:50.791Z,20.98
2019-02-23T13:04:53.734Z,20.97
2019-02-23T13:05:55.687Z,20.98
2019-02-23T13:06:57.682Z,20.99
2019-02-23T13:07:59.478Z,20.98
2019-02-23T13:09:27.005Z,20.99
2019-02-23T13:10:28.971Z,21.01
2019-02-23T13:11:31.060Z,21.04
2019-02-23T13:13:02.839Z,21.04
2019-02-23T13:14:33.432Z,21.04
2019-02-23T13:15:45.414Z,21.06
2019-02-23T13:16:52.886Z,21.06
2019-02-23T13:18:11.842Z,21.06
2019-02-23T13:19:31.755Z,21.06
2019-02-23T13:20:57.384Z,21.05
2019-02-23T13:22:14.188Z,21.06
2019-02-23T13:23:40.387Z,21.09